Data for 02/15/2009

Time Sea-Level Adjusted Pressure Absolute Pressure Temperature Relative Humidity Dew Point   
(mb) (inHg) (mb) (inHg) (C) (F) (%) (C) (F)
00:05 1016 30 845 24.95 -7.7 18.1 82 -10.3 13.5
00:10 1016 30 845 24.95 -7.8 18 82 -10.3 13.5
00:15 1016 30 845 24.95 -7.8 18 82 -10.3 13.5
00:20 1016 30 845 24.95 -7.7 18.1 82 -10.3 13.5
00:25 1016 30 845 24.95 -7.7 18.1 82 -10.3 13.5
00:30 1016 30 845 24.95 -7.7 18.1 82 -10.3 13.4
00:35 1016 30 845 24.95 -7.7 18.1 81 -10.4 13.3
00:40 1016 30 845 24.95 -7.7 18.1 81 -10.4 13.4
00:45 1016 30 845 24.95 -7.7 18.2 81 -10.4 13.3
00:50 1016 30 845 24.95 -7.7 18.1 82 -10.4 13.4
00:55 1016 30 845 24.95 -7.9 17.9 82 -10.4 13.4
01:00 1016 30 845 24.95 -7.8 17.9 82 -10.3 13.4
01:05 1016 30 845 24.95 -7.6 18.3 81 -10.3 13.5
01:10 1016 30 845 24.95 -7.7 18.2 82 -10.2 13.6
01:15 1016 30 845 24.95 -7.6 18.3 82 -10.2 13.6
01:20 1016 30 846 24.98 -7.5 18.6 80 -10.3 13.4
01:25 1016 30 846 24.98 -7.7 18.1 82 -10.3 13.4
01:30 1016 30 846 24.98 -7.8 18 82 -10.4 13.3
01:35 1016 30 846 24.98 -7.6 18.2 81 -10.3 13.4
01:40 1016 30 846 24.98 -7.4 18.7 80 -10.3 13.5
01:45 1016 30 846 24.98 -7.4 18.7 80 -10.2 13.6
01:50 1017 30.03 846 24.98 -7.5 18.6 80 -10.3 13.5
01:55 1017 30.03 846 24.98 -7.9 17.8 82 -10.5 13.2
02:00 1017 30.03 846 24.98 -8.2 17.3 83 -10.6 13
02:05 1016 30 846 24.98 -8.4 16.9 83 -10.7 12.7
02:10 1017 30.03 846 24.98 -8.5 16.6 84 -10.8 12.6
02:15 1017 30.03 846 24.98 -8.5 16.6 85 -10.7 12.7
02:20 1017 30.03 846 24.98 -8.4 16.9 84 -10.7 12.8
02:25 1017 30.03 846 24.98 -8.3 17.1 83 -10.7 12.8
02:30 1017 30.03 846 24.98 -8.4 16.9 84 -10.7 12.7
02:35 1017 30.03 846 24.98 -8.4 16.8 84 -10.7 12.7
02:40 1017 30.03 846 24.98 -8.3 17 83 -10.7 12.7
02:45 1017 30.03 846 24.98 -8.3 17 83 -10.7 12.7
02:50 1017 30.03 846 24.98 -8.5 16.7 84 -10.8 12.6
02:55 1017 30.03 846 24.98 -8.6 16.6 84 -10.7 12.7
03:00 1017 30.03 846 24.98 -8.5 16.7 84 -10.7 12.8
03:05 1017 30.03 846 24.98 -8.4 17 84 -10.6 12.9
03:10 1017 30.03 846 24.98 -8.3 17 85 -10.4 13.2
03:15 1017 30.03 846 24.98 -8.3 17.2 87 -10.1 13.8
03:20 1017 30.03 846 24.98 -8.4 16.9 89 -10 14.1
03:25 1017 30.03 846 24.98 -8.4 16.8 90 -9.8 14.3
03:30 1017 30.03 846 24.98 -8.3 17 89 -9.8 14.3
03:35 1017 30.03 846 24.98 -8.3 17.1 89 -9.8 14.4
03:40 1017 30.03 846 24.98 -8.3 17.2 89 -9.7 14.5
03:45 1017 30.03 846 24.98 -8.2 17.2 89 -9.8 14.4
03:50 1017 30.03 846 24.98 -8.3 17.2 88 -9.9 14.3
03:55 1017 30.03 846 24.98 -8.4 16.8 89 -10 14
04:00 1017 30.03 846 24.98 -8.6 16.6 90 -10 14
04:05 1017 30.03 846 24.98 -8.5 16.7 88 -10.1 13.9
04:10 1017 30.03 846 24.98 -8.5 16.7 88 -10.1 13.8
04:15 1016 30 846 24.98 -8.4 16.9 86 -10.2 13.6
04:20 1016 30 846 24.98 -8.4 16.9 86 -10.3 13.4
04:25 1016 30 846 24.98 -8.5 16.7 87 -10.3 13.5
04:30 1016 30 846 24.98 -8.3 17.1 85 -10.3 13.4
04:35 1016 30 846 24.98 -8.3 17.1 85 -10.3 13.5
04:40 1016 30 846 24.98 -8.5 16.8 86 -10.4 13.3
04:45 1016 30 846 24.98 -8.8 16.2 86 -10.7 12.8
04:50 1017 30.03 846 24.98 -8.9 15.9 86 -10.9 12.4
04:55 1017 30.03 846 24.98 -9.1 15.7 86 -11 12.2
05:00 1017 30.03 846 24.98 -9.2 15.5 86 -11.1 12
05:05 1017 30.03 846 24.98 -9 15.7 86 -11 12.2
05:10 1017 30.03 846 24.98 -8.7 16.3 84 -10.9 12.4
05:15 1017 30.03 846 24.98 -8.5 16.7 83 -11 12.2
05:20 1017 30.03 846 24.98 -8.5 16.6 83 -11 12.2
05:25 1017 30.03 846 24.98 -8.4 16.9 82 -11 12.2
05:30 1017 30.03 846 24.98 -8.4 16.9 82 -10.9 12.4
05:35 1017 30.03 846 24.98 -8.4 16.9 81 -11.1 12
05:40 1017 30.03 846 24.98 -8.6 16.6 81 -11.2 11.8
05:45 1017 30.03 846 24.98 -8.7 16.3 82 -11.3 11.6
05:50 1017 30.03 846 24.98 -8.9 16 83 -11.3 11.7
05:55 1016 30 846 24.98 -9 15.9 83 -11.3 11.7
06:00 1016 30 846 24.98 -8.8 16.2 83 -11.2 11.9
06:05 1016 30 846 24.98 -8.6 16.6 82 -11.1 12.1
06:10 1016 30 846 24.98 -8.5 16.6 81 -11.2 11.8
06:15 1016 30 846 24.98 -8.7 16.4 81 -11.4 11.5
06:20 1016 30 846 24.98 -8.8 16.1 82 -11.4 11.4
06:25 1016 30 846 24.98 -8.9 16.1 82 -11.4 11.5
06:30 1016 30 846 24.98 -8.7 16.4 81 -11.4 11.5
06:35 1016 30 846 24.98 -8.5 16.8 80 -11.3 11.7
06:40 1016 30 846 24.98 -8.4 16.8 80 -11.3 11.7
06:45 1016 30 846 24.98 -8.5 16.7 81 -11.3 11.7
06:50 1016 30 846 24.98 -8.6 16.4 81 -11.4 11.5
06:55 1017 30.03 846 24.98 -9 15.9 81 -11.6 11.1
07:00 1017 30.03 846 24.98 -9.1 15.6 82 -11.6 11.1
07:05 1017 30.03 846 24.98 -9 15.9 82 -11.5 11.2
07:10 1017 30.03 846 24.98 -8.8 16.1 81 -11.5 11.4
07:15 1017 30.03 846 24.98 -8.9 16 81 -11.6 11.1
07:20 1017 30.03 846 24.98 -8.8 16.1 80 -11.6 11.1
07:25 1017 30.03 846 24.98 -8.7 16.3 79 -11.7 11
07:30 1017 30.03 846 24.98 -8.4 16.8 79 -11.5 11.3
07:35 1017 30.03 846 24.98 -8.2 17.2 78 -11.4 11.5
07:40 1017 30.03 846 24.98 -8.1 17.4 78 -11.3 11.6
07:45 1017 30.03 846 24.98 -8 17.7 77 -11.3 11.7
07:50 1017 30.03 846 24.98 -7.9 17.7 76 -11.5 11.3
07:55 1017 30.03 846 24.98 -7.9 17.9 75 -11.5 11.3
08:00 1017 30.03 846 24.98 -7.9 17.8 75 -11.6 11.1
08:05 1017 30.03 846 24.98 -7.7 18.2 74 -11.6 11.2
08:10 1017 30.03 846 24.98 -7.5 18.5 73 -11.6 11.2
08:15 1017 30.03 846 24.98 -7.4 18.6 73 -11.5 11.3
08:20 1017 30.03 846 24.98 -7.4 18.7 71 -11.7 10.9
08:25 1017 30.03 846 24.98 -7.1 19.2 70 -11.7 11
08:30 1017 30.03 846 24.98 -6.7 20 68 -11.6 11.1
08:35 1017 30.03 846 24.98 -6.5 20.3 67 -11.6 11.1
08:40 1017 30.03 846 24.98 -6.4 20.4 68 -11.4 11.5
08:45 1017 30.03 846 24.98 -6.3 20.6 66 -11.7 11
08:50 1017 30.03 846 24.98 -6.3 20.7 66 -11.7 10.9
08:55 1017 30.03 846 24.98 -6.3 20.7 67 -11.5 11.3
09:00 1017 30.03 846 24.98 -6.1 21.1 65 -11.6 11.2
09:05 1017 30.03 846 24.98 -5.8 21.6 66 -11.2 11.8
09:10 1017 30.03 846 24.98 -5.6 21.9 63 -11.7 11
09:15 1017 30.03 846 24.98 -5.4 22.3 61 -11.8 10.7
09:20 1017 30.03 846 24.98 -5 23 61 -11.4 11.4
09:25 1017 30.03 846 24.98 -4.6 23.8 60 -11.2 11.8
09:30 1017 30.03 846 24.98 -4.6 23.8 59 -11.5 11.4
09:35 1017 30.03 846 24.98 -4.4 24.2 60 -11 12.2
09:40 1017 30.03 846 24.98 -4.3 24.3 60 -11 12.3
09:45 1017 30.03 846 24.98 -4 24.8 58 -11.1 12.1
09:50 1017 30.03 846 24.98 -3.3 26.1 57 -10.6 13
09:55 1017 30.03 846 24.98 -2.8 27 54 -10.8 12.6
10:00 1017 30.03 846 24.98 -2.3 27.9 53 -10.5 13.1
10:05 1017 30.03 846 24.98 -2.1 28.2 55 -10.1 13.9
10:10 1017 30.03 846 24.98 -2.4 27.7 57 -9.7 14.5
10:15 1017 30.03 846 24.98 -2 28.3 54 -10.3 13.5
10:20 1016 30 846 24.98 -1.4 29.5 51 -10.2 13.7
10:25 1017 30.03 846 24.98 -1.3 29.7 52 -10.1 13.9
10:30 1017 30.03 846 24.98 -1.8 28.7 53 -10.2 13.6
10:35 1017 30.03 846 24.98 -1.4 29.5 53 -9.8 14.4
10:40 1016 30 846 24.98 -0.7 30.8 50 -9.9 14.1
10:45 1016 30 846 24.98 -0.3 31.4 48 -9.9 14.1
10:50 1016 30 846 24.98 0.2 32.4 46 -10 13.9
10:55 1016 30 846 24.98 -0 31.9 47 -9.9 14.1
11:00 1016 30 846 24.98 -0.3 31.5 43 -11.4 11.5
11:05 1016 30 846 24.98 -0.4 31.2 48 -10 13.9
11:10 1016 30 846 24.98 -0.1 31.8 46 -10.5 13.1
11:15 1016 30 846 24.98 -0.5 31.1 57 -8 17.6
11:20 1016 30 846 24.98 -0.8 30.6 53 -9.1 15.6
11:25 1016 30 845 24.95 -0.5 31.1 57 -8.1 17.4
11:30 1016 30 845 24.95 -0.5 31.1 48 -10.1 13.8
11:35 1016 30 845 24.95 -1.1 30.1 50 -10.3 13.5
11:40 1016 30 845 24.95 -1.2 29.9 46 -11.4 11.5
11:45 1016 30 845 24.95 0.1 32.2 47 -10 14
11:50 1016 30 845 24.95 1.1 34 40 -10.9 12.3
11:55 1016 30 845 24.95 1.2 34.2 37 -12.1 10.3
12:00 1016 30 845 24.95 2.1 35.8 34 -12.1 10.3
12:05 1016 30 845 24.95 1.7 35.1 37 -11.6 11
12:10 1016 30 845 24.95 2.2 36 33 -12.4 9.7
12:15 1016 30 845 24.95 1 33.9 38 -11.9 10.6
12:20 1016 30 845 24.95 1.7 35.1 36 -12 10.4
12:25 1015 29.97 845 24.95 2.2 36 36 -11.5 11.3
12:30 1015 29.97 845 24.95 2.8 37 35 -11.1 12
12:35 1015 29.97 844 24.92 2.8 37 34 -11.7 11
12:40 1015 29.97 844 24.92 2.1 35.8 30 -13.7 7.3
12:45 1015 29.97 844 24.92 2.4 36.4 34 -11.8 10.7
12:50 1015 29.97 844 24.92 1.5 34.7 37 -11.6 11.2
12:55 1015 29.97 844 24.92 1.9 35.4 33 -12.9 8.9
13:00 1015 29.97 844 24.92 1.7 35 36 -11.7 10.9
13:05 1015 29.97 844 24.92 2.1 35.7 33 -12.4 9.6
13:10 1015 29.97 844 24.92 2.7 36.8 34 -11.8 10.7
13:15 1015 29.97 844 24.92 2.7 36.9 33 -11.9 10.5
13:20 1015 29.97 844 24.92 2.1 35.8 37 -11 12.1
13:25 1015 29.97 844 24.92 1.6 35 36 -11.8 10.8
13:30 1015 29.97 844 24.92 2.4 36.3 33 -12.4 9.7
13:35 1015 29.97 844 24.92 1.8 35.2 37 -11.5 11.4
13:40 1014 29.94 844 24.92 2 35.5 33 -12.6 9.2
13:45 1014 29.94 844 24.92 2.2 36 34 -11.9 10.5
13:50 1014 29.94 844 24.92 2 35.7 37 -11.3 11.6
13:55 1014 29.94 843 24.89 1.9 35.4 33 -12.7 9.2
14:00 1014 29.94 843 24.89 2.7 36.9 32 -12.5 9.5
14:05 1014 29.94 843 24.89 3.1 37.6 29 -13.1 8.4
14:10 1014 29.94 843 24.89 3.2 37.7 27 -14.1 6.7
14:15 1014 29.94 844 24.92 3.2 37.8 28 -13.7 7.4
14:20 1014 29.94 843 24.89 3.6 38.5 26 -14 6.7
14:25 1014 29.94 843 24.89 4.1 39.3 25 -14.1 6.7
14:30 1014 29.94 843 24.89 3.7 38.7 27 -13.4 7.8
14:35 1014 29.94 843 24.89 2.8 37 27 -14.6 5.7
14:40 1014 29.94 843 24.89 2.9 37.2 28 -13.7 7.3
14:45 1014 29.94 843 24.89 2.9 37.2 27 -14.2 6.4
14:50 1014 29.94 843 24.89 2.9 37.3 27 -14.2 6.4
14:55 1014 29.94 843 24.89 2.8 37.1 27 -14.6 5.7
15:00 1014 29.94 843 24.89 2.6 36.7 27 -14.4 6
15:05 1014 29.94 843 24.89 2.5 36.5 28 -14.5 6
15:10 1014 29.94 843 24.89 2.5 36.5 28 -14.3 6.3
15:15 1014 29.94 843 24.89 2.3 36.2 29 -14.1 6.6
15:20 1014 29.94 843 24.89 2 35.5 29 -14.3 6.3
15:25 1014 29.94 843 24.89 1.7 35 28 -14.9 5.2
15:30 1014 29.94 843 24.89 1.6 34.9 29 -14.6 5.7
15:35 1014 29.94 843 24.89 1.8 35.2 29 -14.4 6.1
15:40 1014 29.94 843 24.89 2.1 35.8 29 -14.4 6.1
15:45 1014 29.94 843 24.89 1.9 35.4 29 -14.3 6.3
15:50 1014 29.94 843 24.89 1.8 35.3 29 -14.3 6.3
15:55 1014 29.94 843 24.89 1.7 35.1 31 -13.8 7.1
16:00 1014 29.94 843 24.89 1.8 35.2 32 -13.3 8
16:05 1014 29.94 843 24.89 1.8 35.3 31 -13.7 7.4
16:10 1014 29.94 843 24.89 1.8 35.3 36 -11.9 10.6
16:15 1013 29.91 843 24.89 1.9 35.5 35 -11.9 10.6
16:20 1013 29.91 843 24.89 2 35.6 32 -13 8.7
16:25 1013 29.91 843 24.89 1.2 34.1 32 -13.7 7.3
16:30 1013 29.91 843 24.89 0.9 33.6 33 -13.8 7.1
16:35 1013 29.91 842 24.86 0.7 33.3 34 -13.5 7.6
16:40 1013 29.91 842 24.86 0.7 33.3 35 -13.1 8.4
16:45 1013 29.91 842 24.86 0.9 33.7 36 -12.5 9.5
16:50 1013 29.91 842 24.86 1 33.8 37 -12.1 10.3
16:55 1013 29.91 842 24.86 1 33.9 38 -11.8 10.8
17:00 1013 29.91 842 24.86 1.1 34 38 -11.7 11
17:05 1013 29.91 842 24.86 1 33.7 39 -11.4 11.4
17:10 1013 29.91 842 24.86 0.7 33.3 41 -11.2 11.9
17:15 1013 29.91 842 24.86 0.4 32.7 45 -10.4 13.4
17:20 1013 29.91 842 24.86 0.3 32.6 47 -9.7 14.6
17:25 1013 29.91 842 24.86 0.2 32.4 49 -9.3 15.3
17:30 1013 29.91 842 24.86 0.1 32.2 50 -9 15.8
17:35 1013 29.91 842 24.86 0 32 51 -8.9 15.9
17:40 1013 29.91 842 24.86 0.1 32.3 50 -9 15.8
17:45 1013 29.91 842 24.86 0.2 32.3 50 -9 15.8
17:50 1013 29.91 842 24.86 0.1 32.2 50 -9 15.8
17:55 1013 29.91 842 24.86 0.1 32.1 50 -9 15.7
18:00 1013 29.91 842 24.86 0 32 50 -9.2 15.5
18:05 1013 29.91 842 24.86 0 32.1 48 -9.8 14.3
18:10 1013 29.91 842 24.86 0.1 32.2 48 -9.6 14.7
18:15 1013 29.91 842 24.86 0.2 32.4 47 -9.8 14.4
18:20 1013 29.91 842 24.86 0.1 32.2 48 -9.6 14.8
18:25 1013 29.91 842 24.86 0.2 32.4 46 -10 14
18:30 1013 29.91 842 24.86 0.5 32.8 46 -9.9 14.3
18:35 1013 29.91 842 24.86 0.4 32.7 46 -9.9 14.2
18:40 1013 29.91 842 24.86 0.2 32.4 47 -9.7 14.5
18:45 1012 29.88 842 24.86 0.1 32.2 48 -9.6 14.7
18:50 1012 29.88 842 24.86 -0 32 48 -9.7 14.6
18:55 1012 29.88 842 24.86 -0.1 31.8 49 -9.5 15
19:00 1012 29.88 842 24.86 -0.1 31.9 49 -9.6 14.8
19:05 1012 29.88 842 24.86 -0.1 31.8 50 -9.4 15
19:10 1012 29.88 842 24.86 -0.2 31.6 49 -9.6 14.8
19:15 1012 29.88 841 24.83 -0.3 31.5 51 -9.3 15.2
19:20 1012 29.88 841 24.83 -0.4 31.4 50 -9.6 14.6
19:25 1012 29.88 841 24.83 -0.3 31.4 50 -9.5 14.8
19:30 1012 29.88 841 24.83 -0.5 31.2 51 -9.5 15
19:35 1012 29.88 841 24.83 -0.5 31 51 -9.5 14.8
19:40 1012 29.88 841 24.83 -0.6 31 51 -9.6 14.8
19:45 1012 29.88 841 24.83 -0.6 31 51 -9.6 14.8
19:50 1012 29.88 841 24.83 -0.5 31.2 51 -9.5 15
19:55 1012 29.88 841 24.83 -0.5 31.2 51 -9.5 14.9
20:00 1012 29.88 841 24.83 -0.4 31.2 50 -9.7 14.5
20:05 1012 29.88 841 24.83 -0.4 31.2 50 -9.7 14.6
20:10 1012 29.88 841 24.83 -0.4 31.3 50 -9.7 14.6
20:15 1012 29.88 841 24.83 -0.3 31.4 48 -10 14
20:20 1012 29.88 841 24.83 -0.3 31.5 48 -10 14.1
20:25 1012 29.88 841 24.83 -0.3 31.5 49 -9.7 14.5
20:30 1012 29.88 841 24.83 -0.3 31.5 50 -9.6 14.8
20:35 1012 29.88 841 24.83 -0.3 31.5 49 -9.8 14.4
20:40 1012 29.88 841 24.83 -0.4 31.4 49 -9.9 14.2
20:45 1012 29.88 841 24.83 -0.4 31.3 48 -10 14
20:50 1012 29.88 841 24.83 -0.3 31.5 47 -10.2 13.7
20:55 1012 29.88 841 24.83 -0.3 31.5 48 -10.1 13.9
21:00 1012 29.88 841 24.83 -0.3 31.4 48 -10 13.9
21:05 1012 29.88 841 24.83 -0.3 31.4 47 -10.2 13.7
21:10 1012 29.88 841 24.83 -0.3 31.5 47 -10.4 13.4
21:15 1012 29.88 841 24.83 -0.3 31.5 48 -10.1 13.8
21:20 1012 29.88 841 24.83 -0.3 31.5 47 -10.2 13.7
21:25 1012 29.88 841 24.83 -0.4 31.4 48 -10.1 13.8
21:30 1012 29.88 841 24.83 -0.3 31.5 48 -10.1 13.7
21:35 1012 29.88 841 24.83 -0.3 31.5 48 -10.1 13.8
21:40 1012 29.88 841 24.83 -0.3 31.4 47 -10.3 13.5
21:45 1012 29.88 841 24.83 -0.2 31.6 46 -10.5 13.1
21:50 1012 29.88 841 24.83 -0.2 31.7 45 -10.8 12.5
21:55 1012 29.88 841 24.83 -0.2 31.7 45 -10.6 12.9
22:00 1012 29.88 841 24.83 -0.1 31.7 45 -10.8 12.5
22:05 1012 29.88 841 24.83 -0.1 31.8 45 -10.7 12.8
22:10 1012 29.88 841 24.83 -0.2 31.7 46 -10.4 13.2
22:15 1012 29.88 841 24.83 -0.3 31.5 46 -10.7 12.8
22:20 1012 29.88 841 24.83 -0.2 31.6 46 -10.4 13.3
22:25 1012 29.88 841 24.83 -0.3 31.4 46 -10.6 12.9
22:30 1012 29.88 841 24.83 -0.3 31.4 46 -10.6 13
22:35 1012 29.88 841 24.83 -0.3 31.4 45 -10.8 12.5
22:40 1012 29.88 841 24.83 -0.4 31.4 46 -10.6 13
22:45 1012 29.88 841 24.83 -0.4 31.3 45 -10.9 12.3
22:50 1012 29.88 841 24.83 -0.4 31.3 47 -10.3 13.4
22:55 1012 29.88 841 24.83 -0.5 31.1 48 -10.2 13.7
23:00 1012 29.88 841 24.83 -0.6 31 49 -10.1 13.9
23:05 1012 29.88 841 24.83 -0.6 30.8 49 -10.2 13.6
23:10 1012 29.88 841 24.83 -0.6 30.8 48 -10.4 13.2
23:15 1012 29.88 841 24.83 -0.6 30.9 48 -10.4 13.2
23:20 1012 29.88 841 24.83 -0.6 30.9 48 -10.4 13.3
23:25 1012 29.88 841 24.83 -0.7 30.8 49 -10.1 13.8
23:30 1012 29.88 841 24.83 -0.6 30.9 49 -10.2 13.7
23:35 1012 29.88 841 24.83 -0.6 31 48 -10.2 13.7
23:40 1012 29.88 841 24.83 -0.6 31 48 -10.2 13.6
23:45 1012 29.88 841 24.83 -0.5 31.1 49 -9.9 14.1
23:50 1012 29.88 841 24.83 -0.5 31.1 48 -10.3 13.4
23:55 1012 29.88 841 24.83 -0.5 31.1 51 -9.5 14.8
24:00 1012 29.88 841 24.83 -0.8 30.5 50 -10.1 13.9